createdAt,value
2022-12-01T00:00:56.575Z,4.30
2022-12-01T00:06:20.474Z,6.78
2022-12-01T00:11:23.585Z,4.53
2022-12-01T00:16:26.808Z,6.82
2022-12-01T00:21:29.929Z,5.72
2022-12-01T00:26:33.044Z,7.10
2022-12-01T00:31:38.836Z,6.30
2022-12-01T00:36:41.990Z,3.80
2022-12-01T00:41:45.109Z,5.38
2022-12-01T00:46:48.210Z,5.45
2022-12-01T00:51:53.875Z,8.53
2022-12-01T00:56:57.054Z,6.97
2022-12-01T01:02:00.520Z,10.37
2022-12-01T01:07:04.879Z,8.30
2022-12-01T01:12:08.045Z,5.55
2022-12-01T01:17:11.176Z,4.53
2022-12-01T01:22:14.370Z,8.02
2022-12-01T01:27:17.614Z,6.07
2022-12-01T01:32:21.176Z,6.25
2022-12-01T01:37:25.557Z,9.88
2022-12-01T01:42:28.716Z,10.80
2022-12-01T01:47:40.275Z,5.95
2022-12-01T01:52:51.991Z,6.67
2022-12-01T01:57:55.259Z,10.90
2022-12-01T02:02:58.714Z,7.50
2022-12-01T02:08:03.157Z,8.57
2022-12-01T02:13:39.103Z,7.68
2022-12-01T02:18:57.281Z,6.27
2022-12-01T02:24:26.440Z,6.15
2022-12-01T02:29:48.375Z,6.35
2022-12-01T02:35:05.930Z,8.70
2022-12-01T02:40:19.786Z,7.50
2022-12-01T02:45:32.681Z,6.90
2022-12-01T02:50:38.504Z,7.30
2022-12-01T02:55:54.328Z,3.83
2022-12-01T03:01:12.233Z,6.33
2022-12-01T03:06:22.959Z,6.47
2022-12-01T03:11:46.187Z,4.87
2022-12-01T03:16:54.704Z,6.05
2022-12-01T03:22:06.044Z,5.53
2022-12-01T03:27:11.529Z,5.90
2022-12-01T03:32:20.891Z,6.13
2022-12-01T03:37:33.112Z,8.97
2022-12-01T03:42:44.443Z,6.20
2022-12-01T03:47:47.814Z,7.30
2022-12-01T03:52:51.144Z,7.70
2022-12-01T03:58:07.949Z,6.90
2022-12-01T04:03:18.648Z,6.10
2022-12-01T04:08:22.472Z,8.32
2022-12-01T04:13:26.173Z,6.97
2022-12-01T04:18:29.346Z,7.60
2022-12-01T04:23:50.836Z,7.63
2022-12-01T04:29:05.748Z,6.37
2022-12-01T04:34:10.790Z,5.88
2022-12-01T04:39:14.072Z,5.47
2022-12-01T04:44:18.087Z,5.53
2022-12-01T04:49:23.824Z,5.22
2022-12-01T04:54:27.323Z,7.87
2022-12-01T04:59:30.434Z,7.78
2022-12-01T05:04:38.866Z,5.55
2022-12-01T05:09:42.069Z,8.63
2022-12-01T05:14:46.308Z,8.07
2022-12-01T05:20:07.957Z,5.47
2022-12-01T05:25:11.048Z,6.22
2022-12-01T05:30:14.299Z,6.30
2022-12-01T05:35:17.618Z,7.43
2022-12-01T05:40:20.754Z,9.50
2022-12-01T05:50:40.933Z,6.68
2022-12-01T05:55:44.077Z,8.02
2022-12-01T06:00:47.653Z,7.00
2022-12-01T06:05:51.324Z,8.32
2022-12-01T06:10:54.573Z,7.87
2022-12-01T06:16:03.289Z,6.38
2022-12-01T06:21:07.504Z,8.10
2022-12-01T06:26:15.078Z,6.60
2022-12-01T06:31:18.302Z,4.95
2022-12-01T06:36:22.469Z,8.50
2022-12-01T06:41:25.576Z,5.32
2022-12-01T06:46:28.801Z,4.90
2022-12-01T06:51:34.450Z,5.03
2022-12-01T06:56:37.664Z,7.80
2022-12-01T07:01:40.934Z,7.23
2022-12-01T07:06:44.252Z,8.07
2022-12-01T07:11:47.463Z,9.82
2022-12-01T07:16:50.677Z,9.93
2022-12-01T07:21:53.839Z,10.23
2022-12-01T07:26:56.936Z,9.50
2022-12-01T07:32:00.031Z,10.13
2022-12-01T07:37:03.176Z,9.80
2022-12-01T07:42:06.425Z,9.33
2022-12-01T07:47:09.527Z,8.95
2022-12-01T07:52:12.713Z,9.07
2022-12-01T07:57:18.459Z,7.60
2022-12-01T08:02:59.084Z,7.03
2022-12-01T08:08:21.089Z,9.23
2022-12-01T08:13:27.341Z,8.23
2022-12-01T08:18:30.514Z,5.90
2022-12-01T08:23:34.724Z,6.93
2022-12-01T08:28:41.218Z,6.60
2022-12-01T08:33:44.627Z,6.60
2022-12-01T08:38:50.739Z,6.63
2022-12-01T08:43:58.825Z,7.20
2022-12-01T08:49:26.127Z,6.13
2022-12-01T08:54:47.604Z,5.50
2022-12-01T08:59:51.585Z,6.57
2022-12-01T09:04:54.852Z,6.30
2022-12-01T09:09:58.219Z,6.50
2022-12-01T09:15:01.435Z,5.88
2022-12-01T09:20:05.558Z,5.70
2022-12-01T09:25:14.954Z,5.83
2022-12-01T09:30:18.421Z,7.53
2022-12-01T09:35:23.511Z,5.70
2022-12-01T09:40:38.790Z,5.47
2022-12-01T09:45:47.814Z,6.18
2022-12-01T09:50:51.089Z,5.10
2022-12-01T09:55:57.827Z,5.68
2022-12-01T10:01:04.641Z,4.60
2022-12-01T10:06:27.207Z,4.70
2022-12-01T10:11:36.494Z,5.05
2022-12-01T10:17:02.467Z,4.27
2022-12-01T10:22:17.444Z,4.45
2022-12-01T10:27:26.683Z,4.43
2022-12-01T10:33:02.260Z,4.78
2022-12-01T10:38:13.070Z,4.00
2022-12-01T10:43:17.085Z,3.93
2022-12-01T10:48:23.011Z,3.58
2022-12-01T10:53:34.541Z,5.03
2022-12-01T10:58:56.300Z,3.75
2022-12-01T11:04:08.761Z,3.53
2022-12-01T11:09:26.194Z,3.40
2022-12-01T11:14:44.208Z,3.85
2022-12-01T11:19:47.849Z,4.30
2022-12-01T11:24:54.025Z,4.50
2022-12-01T11:30:05.089Z,4.88
2022-12-01T11:35:14.363Z,4.47
2022-12-01T11:40:26.480Z,3.78
2022-12-01T11:45:40.536Z,3.83
2022-12-01T11:50:59.848Z,3.67
2022-12-01T11:56:23.861Z,3.88
2022-12-01T12:07:16.107Z,3.22
2022-12-01T12:12:19.223Z,3.00
2022-12-01T12:17:37.930Z,3.80
2022-12-01T12:23:32.119Z,2.50
2022-12-01T12:28:56.938Z,1.93
2022-12-01T12:34:25.259Z,3.30
2022-12-01T12:39:55.148Z,2.57
2022-12-01T12:45:41.648Z,1.95
2022-12-01T12:51:13.309Z,2.92
2022-12-01T12:56:21.090Z,2.50
2022-12-01T13:01:34.603Z,2.15
2022-12-01T13:06:46.284Z,2.70
2022-12-01T13:11:56.155Z,2.72
2022-12-01T13:17:08.348Z,2.45
2022-12-01T13:22:14.549Z,2.50
2022-12-01T13:27:21.552Z,2.35
2022-12-01T13:32:45.033Z,2.90
2022-12-01T13:37:51.357Z,2.92
2022-12-01T13:43:10.266Z,3.38
2022-12-01T13:48:30.297Z,2.83
2022-12-01T13:53:53.111Z,3.28
2022-12-01T13:58:56.435Z,3.17
2022-12-01T14:04:11.796Z,3.42
2022-12-01T14:09:18.023Z,2.58
2022-12-01T14:14:26.511Z,3.57
2022-12-01T14:19:44.676Z,3.38
2022-12-01T14:24:53.338Z,4.67
2022-12-01T14:29:56.467Z,4.47
2022-12-01T14:35:06.387Z,5.10
2022-12-01T14:40:30.673Z,3.17
2022-12-01T14:46:09.417Z,4.15
2022-12-01T14:51:34.293Z,4.00
2022-12-01T14:56:38.343Z,5.18
2022-12-01T15:01:41.826Z,3.70
2022-12-01T15:06:45.659Z,4.67
2022-12-01T15:11:53.306Z,4.28
2022-12-01T15:16:57.006Z,4.50
2022-12-01T15:22:05.607Z,5.63
2022-12-01T15:27:31.493Z,5.07
2022-12-01T15:32:39.900Z,6.27
2022-12-01T15:37:44.671Z,5.43
2022-12-01T15:43:04.748Z,5.03
2022-12-01T15:48:19.244Z,4.55
2022-12-01T15:53:33.137Z,6.60
2022-12-01T15:58:43.966Z,5.37
2022-12-01T16:03:59.326Z,6.28
2022-12-01T16:09:18.896Z,5.43
2022-12-01T16:14:27.311Z,5.20
2022-12-01T16:19:34.265Z,5.35
2022-12-01T16:25:04.612Z,4.80
2022-12-01T16:30:21.748Z,4.05
2022-12-01T16:35:29.534Z,6.07
2022-12-01T16:40:33.268Z,5.35
2022-12-01T16:45:36.436Z,4.93
2022-12-01T16:50:40.837Z,5.93
2022-12-01T16:55:51.478Z,5.60
2022-12-01T17:06:48.812Z,4.50
2022-12-01T17:11:51.967Z,5.57
2022-12-01T17:16:58.660Z,5.47
2022-12-01T17:22:01.890Z,5.75
2022-12-01T17:27:06.373Z,5.77
2022-12-01T17:32:11.251Z,6.13
2022-12-01T17:37:20.501Z,5.07
2022-12-01T17:42:24.166Z,6.00
2022-12-01T17:47:27.652Z,5.35
2022-12-01T17:52:30.920Z,5.67
2022-12-01T17:57:34.328Z,4.68
2022-12-01T18:02:38.901Z,5.00
2022-12-01T18:07:44.841Z,5.67
2022-12-01T18:12:49.127Z,3.35
2022-12-01T18:17:58.846Z,5.67
2022-12-01T18:23:32.465Z,6.43
2022-12-01T18:29:52.195Z,5.78
2022-12-01T18:56:36.535Z,5.90
2022-12-01T19:02:13.825Z,5.25
2022-12-01T19:07:55.613Z,5.37
2022-12-01T19:14:23.665Z,4.82
2022-12-01T19:20:08.505Z,5.20
